sensor_id;sensor_type;location;lat;lon;timestamp;temperature;humidity
20398;DHT22;10358;49.590;11.030;2023-03-21T00:01:12;8.30;99.90
20398;DHT22;10358;49.590;11.030;2023-03-21T00:03:39;8.30;99.90
20398;DHT22;10358;49.590;11.030;2023-03-21T00:06:08;8.30;99.90
20398;DHT22;10358;49.590;11.030;2023-03-21T00:08:35;8.30;99.90
20398;DHT22;10358;49.590;11.030;2023-03-21T00:11:04;8.30;99.90
20398;DHT22;10358;49.590;11.030;2023-03-21T00:13:31;8.20;99.90
20398;DHT22;10358;49.590;11.030;2023-03-21T00:16:14;8.30;99.90
20398;DHT22;10358;49.590;11.030;2023-03-21T00:18:45;8.20;99.90
20398;DHT22;10358;49.590;11.030;2023-03-21T00:21:13;8.20;99.90
20398;DHT22;10358;49.590;11.030;2023-03-21T00:23:40;8.10;99.90
20398;DHT22;10358;49.590;11.030;2023-03-21T00:26:06;8.10;99.90
20398;DHT22;10358;49.590;11.030;2023-03-21T00:28:35;8.00;99.90
20398;DHT22;10358;49.590;11.030;2023-03-21T00:31:00;8.00;99.90
20398;DHT22;10358;49.590;11.030;2023-03-21T00:33:26;8.10;99.90
20398;DHT22;10358;49.590;11.030;2023-03-21T00:35:53;8.00;99.90
20398;DHT22;10358;49.590;11.030;2023-03-21T00:38:19;8.10;99.90
20398;DHT22;10358;49.590;11.030;2023-03-21T00:40:45;8.10;99.90
20398;DHT22;10358;49.590;11.030;2023-03-21T00:43:11;8.00;99.90
20398;DHT22;10358;49.590;11.030;2023-03-21T00:45:39;8.00;99.90
20398;DHT22;10358;49.590;11.030;2023-03-21T00:48:04;7.90;99.90
20398;DHT22;10358;49.590;11.030;2023-03-21T00:50:30;7.90;99.90
20398;DHT22;10358;49.590;11.030;2023-03-21T00:52:57;7.90;99.90
20398;DHT22;10358;49.590;11.030;2023-03-21T00:55:22;7.80;99.90
20398;DHT22;10358;49.590;11.030;2023-03-21T00:57:48;7.80;99.90
20398;DHT22;10358;49.590;11.030;2023-03-21T01:00:14;7.80;99.90
20398;DHT22;10358;49.590;11.030;2023-03-21T01:02:42;7.80;99.90
20398;DHT22;10358;49.590;11.030;2023-03-21T01:05:29;7.80;99.90
20398;DHT22;10358;49.590;11.030;2023-03-21T01:08:15;7.80;99.90
20398;DHT22;10358;49.590;11.030;2023-03-21T01:10:43;7.80;99.90
20398;DHT22;10358;49.590;11.030;2023-03-21T01:13:10;7.80;99.90
20398;DHT22;10358;49.590;11.030;2023-03-21T01:15:41;7.70;99.90
20398;DHT22;10358;49.590;11.030;2023-03-21T01:18:07;7.70;99.90
20398;DHT22;10358;49.590;11.030;2023-03-21T01:20:33;7.70;99.90
20398;DHT22;10358;49.590;11.030;2023-03-21T01:22:58;7.70;99.90
20398;DHT22;10358;49.590;11.030;2023-03-21T01:25:24;7.60;99.90
20398;DHT22;10358;49.590;11.030;2023-03-21T01:27:49;7.60;99.90
20398;DHT22;10358;49.590;11.030;2023-03-21T01:30:15;7.60;99.90
20398;DHT22;10358;49.590;11.030;2023-03-21T01:32:41;7.60;99.90
20398;DHT22;10358;49.590;11.030;2023-03-21T01:35:07;7.50;99.90
20398;DHT22;10358;49.590;11.030;2023-03-21T01:37:32;7.50;99.90
20398;DHT22;10358;49.590;11.030;2023-03-21T01:39:58;7.50;99.90
20398;DHT22;10358;49.590;11.030;2023-03-21T01:42:24;7.50;99.90
20398;DHT22;10358;49.590;11.030;2023-03-21T01:44:55;7.50;99.90
20398;DHT22;10358;49.590;11.030;2023-03-21T01:47:22;7.40;99.90
20398;DHT22;10358;49.590;11.030;2023-03-21T01:49:54;7.40;99.90
20398;DHT22;10358;49.590;11.030;2023-03-21T01:52:25;7.30;99.90
20398;DHT22;10358;49.590;11.030;2023-03-21T01:54:52;7.30;99.90
20398;DHT22;10358;49.590;11.030;2023-03-21T01:57:27;7.20;99.90
20398;DHT22;10358;49.590;11.030;2023-03-21T01:59:59;7.30;99.90
20398;DHT22;10358;49.590;11.030;2023-03-21T02:02:36;7.20;99.90
20398;DHT22;10358;49.590;11.030;2023-03-21T02:05:15;7.20;99.90
20398;DHT22;10358;49.590;11.030;2023-03-21T02:07:42;7.10;99.90
20398;DHT22;10358;49.590;11.030;2023-03-21T02:10:11;7.00;99.90
20398;DHT22;10358;49.590;11.030;2023-03-21T02:12:38;7.00;99.90
20398;DHT22;10358;49.590;11.030;2023-03-21T02:15:05;7.00;99.90
20398;DHT22;10358;49.590;11.030;2023-03-21T02:28:13;7.00;99.90
20398;DHT22;10358;49.590;11.030;2023-03-21T02:30:51;7.00;99.90
20398;DHT22;10358;49.590;11.030;2023-03-21T02:38:47;6.90;99.90
20398;DHT22;10358;49.590;11.030;2023-03-21T02:41:39;6.90;99.90
20398;DHT22;10358;49.590;11.030;2023-03-21T02:44:14;6.90;99.90
20398;DHT22;10358;49.590;11.030;2023-03-21T02:46:57;7.00;99.90
20398;DHT22;10358;49.590;11.030;2023-03-21T02:49:31;7.00;99.90
20398;DHT22;10358;49.590;11.030;2023-03-21T02:51:58;7.00;99.90
20398;DHT22;10358;49.590;11.030;2023-03-21T02:54:25;7.00;99.90
20398;DHT22;10358;49.590;11.030;2023-03-21T02:56:52;7.00;99.90
20398;DHT22;10358;49.590;11.030;2023-03-21T02:59:21;7.00;99.90
20398;DHT22;10358;49.590;11.030;2023-03-21T03:01:50;7.00;99.90
20398;DHT22;10358;49.590;11.030;2023-03-21T03:04:27;7.00;99.90
20398;DHT22;10358;49.590;11.030;2023-03-21T03:12:24;6.90;99.90
20398;DHT22;10358;49.590;11.030;2023-03-21T03:17:50;6.80;99.90
20398;DHT22;10358;49.590;11.030;2023-03-21T03:20:32;6.80;99.90
20398;DHT22;10358;49.590;11.030;2023-03-21T03:23:41;6.70;99.90
20398;DHT22;10358;49.590;11.030;2023-03-21T03:28:38;6.80;99.90
20398;DHT22;10358;49.590;11.030;2023-03-21T03:31:07;6.80;99.90
20398;DHT22;10358;49.590;11.030;2023-03-21T03:33:40;6.80;99.90
20398;DHT22;10358;49.590;11.030;2023-03-21T03:36:09;6.70;99.90
20398;DHT22;10358;49.590;11.030;2023-03-21T03:38:36;6.80;99.90
20398;DHT22;10358;49.590;11.030;2023-03-21T03:41:09;6.80;99.90
20398;DHT22;10358;49.590;11.030;2023-03-21T03:43:42;6.80;99.90
20398;DHT22;10358;49.590;11.030;2023-03-21T03:46:18;6.80;99.90
20398;DHT22;10358;49.590;11.030;2023-03-21T03:49:12;6.90;99.90
20398;DHT22;10358;49.590;11.030;2023-03-21T03:54:12;6.90;99.90
20398;DHT22;10358;49.590;11.030;2023-03-21T03:56:42;6.90;99.90
20398;DHT22;10358;49.590;11.030;2023-03-21T03:59:08;6.90;99.90
20398;DHT22;10358;49.590;11.030;2023-03-21T04:01:33;6.90;99.90
20398;DHT22;10358;49.590;11.030;2023-03-21T04:03:59;6.90;99.90
20398;DHT22;10358;49.590;11.030;2023-03-21T04:06:26;6.90;99.90
20398;DHT22;10358;49.590;11.030;2023-03-21T04:08:54;6.80;99.90
20398;DHT22;10358;49.590;11.030;2023-03-21T04:11:21;6.90;99.90
20398;DHT22;10358;49.590;11.030;2023-03-21T04:13:46;6.90;99.90
20398;DHT22;10358;49.590;11.030;2023-03-21T04:16:12;6.90;99.90
20398;DHT22;10358;49.590;11.030;2023-03-21T04:18:39;6.90;99.90
20398;DHT22;10358;49.590;11.030;2023-03-21T04:21:12;6.90;99.90
20398;DHT22;10358;49.590;11.030;2023-03-21T04:23:38;6.90;99.90
20398;DHT22;10358;49.590;11.030;2023-03-21T04:26:04;6.90;99.90
20398;DHT22;10358;49.590;11.030;2023-03-21T04:28:31;6.80;99.90
20398;DHT22;10358;49.590;11.030;2023-03-21T04:30:58;6.90;99.90
20398;DHT22;10358;49.590;11.030;2023-03-21T04:33:24;6.90;99.90
20398;DHT22;10358;49.590;11.030;2023-03-21T04:35:51;6.80;99.90
20398;DHT22;10358;49.590;11.030;2023-03-21T04:38:21;6.80;99.90
20398;DHT22;10358;49.590;11.030;2023-03-21T04:40:47;6.70;99.90
20398;DHT22;10358;49.590;11.030;2023-03-21T04:43:12;6.70;99.90
20398;DHT22;10358;49.590;11.030;2023-03-21T04:45:38;6.60;99.90
20398;DHT22;10358;49.590;11.030;2023-03-21T04:48:04;6.50;99.90
20398;DHT22;10358;49.590;11.030;2023-03-21T04:50:29;6.50;99.90
20398;DHT22;10358;49.590;11.030;2023-03-21T04:52:56;6.40;99.90
20398;DHT22;10358;49.590;11.030;2023-03-21T04:55:21;6.40;99.90
20398;DHT22;10358;49.590;11.030;2023-03-21T04:57:47;6.30;99.90
20398;DHT22;10358;49.590;11.030;2023-03-21T05:00:13;6.20;99.90
20398;DHT22;10358;49.590;11.030;2023-03-21T05:02:39;6.20;99.90
20398;DHT22;10358;49.590;11.030;2023-03-21T05:05:06;6.20;99.90
20398;DHT22;10358;49.590;11.030;2023-03-21T05:07:36;6.20;99.90
20398;DHT22;10358;49.590;11.030;2023-03-21T05:10:02;6.20;99.90
20398;DHT22;10358;49.590;11.030;2023-03-21T05:12:27;6.10;99.90
20398;DHT22;10358;49.590;11.030;2023-03-21T05:14:53;6.10;99.90
20398;DHT22;10358;49.590;11.030;2023-03-21T05:17:19;6.20;99.90
20398;DHT22;10358;49.590;11.030;2023-03-21T05:19:47;6.10;99.90
20398;DHT22;10358;49.590;11.030;2023-03-21T05:22:15;6.10;99.90
20398;DHT22;10358;49.590;11.030;2023-03-21T05:24:44;6.10;99.90
20398;DHT22;10358;49.590;11.030;2023-03-21T05:27:18;6.10;99.90
20398;DHT22;10358;49.590;11.030;2023-03-21T05:30:13;6.10;99.90
20398;DHT22;10358;49.590;11.030;2023-03-21T05:32:39;6.20;99.90
20398;DHT22;10358;49.590;11.030;2023-03-21T05:35:05;6.20;99.90
20398;DHT22;10358;49.590;11.030;2023-03-21T05:37:31;6.30;99.90
20398;DHT22;10358;49.590;11.030;2023-03-21T05:39:56;6.30;99.90
20398;DHT22;10358;49.590;11.030;2023-03-21T05:42:22;6.30;99.90
20398;DHT22;10358;49.590;11.030;2023-03-21T05:44:48;6.20;99.90
20398;DHT22;10358;49.590;11.030;2023-03-21T05:47:16;6.20;99.90
20398;DHT22;10358;49.590;11.030;2023-03-21T05:49:42;6.30;99.90
20398;DHT22;10358;49.590;11.030;2023-03-21T05:52:08;6.30;99.90
20398;DHT22;10358;49.590;11.030;2023-03-21T05:54:34;6.30;99.90
20398;DHT22;10358;49.590;11.030;2023-03-21T05:57:01;6.30;99.90
20398;DHT22;10358;49.590;11.030;2023-03-21T05:59:26;6.40;99.90
20398;DHT22;10358;49.590;11.030;2023-03-21T06:01:52;6.30;99.90
20398;DHT22;10358;49.590;11.030;2023-03-21T06:04:17;6.40;99.90
20398;DHT22;10358;49.590;11.030;2023-03-21T06:06:43;6.40;99.90
20398;DHT22;10358;49.590;11.030;2023-03-21T06:09:09;6.50;99.90
20398;DHT22;10358;49.590;11.030;2023-03-21T06:11:36;6.50;99.90
20398;DHT22;10358;49.590;11.030;2023-03-21T06:14:03;6.60;99.90
20398;DHT22;10358;49.590;11.030;2023-03-21T06:16:28;6.60;99.90
20398;DHT22;10358;49.590;11.030;2023-03-21T06:18:55;6.70;99.90
20398;DHT22;10358;49.590;11.030;2023-03-21T06:21:20;6.80;99.90
20398;DHT22;10358;49.590;11.030;2023-03-21T06:23:46;6.80;99.90
20398;DHT22;10358;49.590;11.030;2023-03-21T06:26:12;6.80;99.90
20398;DHT22;10358;49.590;11.030;2023-03-21T06:28:38;6.80;99.90
20398;DHT22;10358;49.590;11.030;2023-03-21T06:31:04;6.80;99.90
20398;DHT22;10358;49.590;11.030;2023-03-21T06:33:29;6.90;99.90
20398;DHT22;10358;49.590;11.030;2023-03-21T06:35:57;7.00;99.90
20398;DHT22;10358;49.590;11.030;2023-03-21T06:38:23;7.10;99.90
20398;DHT22;10358;49.590;11.030;2023-03-21T06:40:49;7.20;99.90
20398;DHT22;10358;49.590;11.030;2023-03-21T06:43:15;7.30;99.90
20398;DHT22;10358;49.590;11.030;2023-03-21T06:45:41;7.30;99.90
20398;DHT22;10358;49.590;11.030;2023-03-21T06:48:07;7.40;99.90
20398;DHT22;10358;49.590;11.030;2023-03-21T06:50:32;7.50;99.90
20398;DHT22;10358;49.590;11.030;2023-03-21T06:52:58;7.60;99.90
20398;DHT22;10358;49.590;11.030;2023-03-21T06:55:24;7.70;99.90
20398;DHT22;10358;49.590;11.030;2023-03-21T06:57:55;7.80;99.90
20398;DHT22;10358;49.590;11.030;2023-03-21T07:00:22;7.80;99.90
20398;DHT22;10358;49.590;11.030;2023-03-21T07:02:48;7.90;99.90
20398;DHT22;10358;49.590;11.030;2023-03-21T07:05:15;8.00;99.90
20398;DHT22;10358;49.590;11.030;2023-03-21T07:07:41;8.10;99.90
20398;DHT22;10358;49.590;11.030;2023-03-21T07:10:07;8.10;99.90
20398;DHT22;10358;49.590;11.030;2023-03-21T07:12:33;8.20;99.90
20398;DHT22;10358;49.590;11.030;2023-03-21T07:15:00;8.30;99.90
20398;DHT22;10358;49.590;11.030;2023-03-21T07:17:26;8.40;99.90
20398;DHT22;10358;49.590;11.030;2023-03-21T07:19:52;8.50;99.90
20398;DHT22;10358;49.590;11.030;2023-03-21T07:22:18;8.60;99.90
20398;DHT22;10358;49.590;11.030;2023-03-21T07:24:44;8.60;99.90
20398;DHT22;10358;49.590;11.030;2023-03-21T07:27:13;8.70;99.90
20398;DHT22;10358;49.590;11.030;2023-03-21T07:29:39;8.80;99.90
20398;DHT22;10358;49.590;11.030;2023-03-21T07:32:05;8.90;99.90
20398;DHT22;10358;49.590;11.030;2023-03-21T07:34:30;9.00;99.90
20398;DHT22;10358;49.590;11.030;2023-03-21T07:36:58;9.10;99.90
20398;DHT22;10358;49.590;11.030;2023-03-21T07:39:25;9.20;99.90
20398;DHT22;10358;49.590;11.030;2023-03-21T07:41:50;9.20;99.90
20398;DHT22;10358;49.590;11.030;2023-03-21T07:44:16;9.30;99.90
20398;DHT22;10358;49.590;11.030;2023-03-21T07:46:41;9.30;99.90
20398;DHT22;10358;49.590;11.030;2023-03-21T07:49:07;9.50;99.90
20398;DHT22;10358;49.590;11.030;2023-03-21T07:51:34;9.60;99.90
20398;DHT22;10358;49.590;11.030;2023-03-21T07:54:02;9.70;99.90
20398;DHT22;10358;49.590;11.030;2023-03-21T07:56:28;9.80;99.90
20398;DHT22;10358;49.590;11.030;2023-03-21T07:58:53;9.90;99.90
20398;DHT22;10358;49.590;11.030;2023-03-21T08:01:19;10.00;99.90
20398;DHT22;10358;49.590;11.030;2023-03-21T08:03:46;10.10;99.90
20398;DHT22;10358;49.590;11.030;2023-03-21T08:06:12;10.10;99.90
20398;DHT22;10358;49.590;11.030;2023-03-21T08:08:38;10.20;99.90
20398;DHT22;10358;49.590;11.030;2023-03-21T08:11:04;10.30;99.90
20398;DHT22;10358;49.590;11.030;2023-03-21T08:13:30;10.50;99.90
20398;DHT22;10358;49.590;11.030;2023-03-21T08:15:56;10.60;99.90
20398;DHT22;10358;49.590;11.030;2023-03-21T08:18:21;10.70;99.90
20398;DHT22;10358;49.590;11.030;2023-03-21T08:20:52;10.70;99.90
20398;DHT22;10358;49.590;11.030;2023-03-21T08:23:18;10.90;99.90
20398;DHT22;10358;49.590;11.030;2023-03-21T08:25:43;11.00;99.90
20398;DHT22;10358;49.590;11.030;2023-03-21T08:28:09;11.10;99.90
20398;DHT22;10358;49.590;11.030;2023-03-21T08:30:34;11.20;99.90
20398;DHT22;10358;49.590;11.030;2023-03-21T08:33:03;11.20;99.90
20398;DHT22;10358;49.590;11.030;2023-03-21T08:35:29;11.30;99.90
20398;DHT22;10358;49.590;11.030;2023-03-21T08:37:56;11.50;99.90
20398;DHT22;10358;49.590;11.030;2023-03-21T08:40:21;11.60;99.90
20398;DHT22;10358;49.590;11.030;2023-03-21T08:42:47;11.80;99.90
20398;DHT22;10358;49.590;11.030;2023-03-21T08:45:14;11.90;99.90
20398;DHT22;10358;49.590;11.030;2023-03-21T08:47:40;12.10;99.90
20398;DHT22;10358;49.590;11.030;2023-03-21T08:50:09;12.20;99.90
20398;DHT22;10358;49.590;11.030;2023-03-21T08:52:35;12.30;99.90
20398;DHT22;10358;49.590;11.030;2023-03-21T08:55:03;12.30;99.90
20398;DHT22;10358;49.590;11.030;2023-03-21T08:57:29;12.20;99.90
20398;DHT22;10358;49.590;11.030;2023-03-21T08:59:55;12.00;99.90
20398;DHT22;10358;49.590;11.030;2023-03-21T09:02:20;11.90;99.90
20398;DHT22;10358;49.590;11.030;2023-03-21T09:04:46;12.10;99.90
20398;DHT22;10358;49.590;11.030;2023-03-21T09:07:12;12.20;99.90
20398;DHT22;10358;49.590;11.030;2023-03-21T09:09:39;12.40;99.90
20398;DHT22;10358;49.590;11.030;2023-03-21T09:12:05;12.40;99.90
20398;DHT22;10358;49.590;11.030;2023-03-21T09:14:31;12.50;99.90
20398;DHT22;10358;49.590;11.030;2023-03-21T09:16:57;12.60;99.90
20398;DHT22;10358;49.590;11.030;2023-03-21T09:19:23;12.50;99.90
20398;DHT22;10358;49.590;11.030;2023-03-21T09:21:48;12.50;99.90
20398;DHT22;10358;49.590;11.030;2023-03-21T09:24:15;12.50;99.90
20398;DHT22;10358;49.590;11.030;2023-03-21T09:26:42;12.50;99.90
20398;DHT22;10358;49.590;11.030;2023-03-21T09:29:08;12.70;99.90
20398;DHT22;10358;49.590;11.030;2023-03-21T09:31:34;12.80;99.90
20398;DHT22;10358;49.590;11.030;2023-03-21T09:33:59;12.90;99.90
20398;DHT22;10358;49.590;11.030;2023-03-21T09:36:25;13.00;99.90
20398;DHT22;10358;49.590;11.030;2023-03-21T09:38:52;13.10;99.90
20398;DHT22;10358;49.590;11.030;2023-03-21T09:49:33;13.10;98.90
20398;DHT22;10358;49.590;11.030;2023-03-21T09:52:08;13.00;97.50
20398;DHT22;10358;49.590;11.030;2023-03-21T09:54:41;13.00;98.90
20398;DHT22;10358;49.590;11.030;2023-03-21T09:59:50;13.00;98.80
20398;DHT22;10358;49.590;11.030;2023-03-21T10:05:01;13.10;97.20
20398;DHT22;10358;49.590;11.030;2023-03-21T10:07:35;13.10;97.80
20398;DHT22;10358;49.590;11.030;2023-03-21T10:10:03;13.10;97.90
20398;DHT22;10358;49.590;11.030;2023-03-21T10:12:29;13.20;97.10
20398;DHT22;10358;49.590;11.030;2023-03-21T10:14:56;13.20;97.40
20398;DHT22;10358;49.590;11.030;2023-03-21T10:17:28;13.30;97.40
20398;DHT22;10358;49.590;11.030;2023-03-21T10:20:20;13.30;97.00
20398;DHT22;10358;49.590;11.030;2023-03-21T10:22:49;13.30;96.10
20398;DHT22;10358;49.590;11.030;2023-03-21T10:25:18;13.20;96.90
20398;DHT22;10358;49.590;11.030;2023-03-21T10:27:45;13.20;94.20
20398;DHT22;10358;49.590;11.030;2023-03-21T10:30:25;13.20;92.50
20398;DHT22;10358;49.590;11.030;2023-03-21T10:32:51;13.20;90.70
20398;DHT22;10358;49.590;11.030;2023-03-21T10:35:17;13.30;91.10
20398;DHT22;10358;49.590;11.030;2023-03-21T10:37:44;13.20;91.00
20398;DHT22;10358;49.590;11.030;2023-03-21T10:40:16;13.20;90.90
20398;DHT22;10358;49.590;11.030;2023-03-21T10:42:42;13.30;90.60
20398;DHT22;10358;49.590;11.030;2023-03-21T10:45:18;13.30;90.50
20398;DHT22;10358;49.590;11.030;2023-03-21T10:47:47;13.40;90.00
20398;DHT22;10358;49.590;11.030;2023-03-21T10:50:16;13.40;86.40
20398;DHT22;10358;49.590;11.030;2023-03-21T10:52:46;13.40;84.60
20398;DHT22;10358;49.590;11.030;2023-03-21T10:55:29;13.50;86.10
20398;DHT22;10358;49.590;11.030;2023-03-21T10:58:05;13.50;86.20
20398;DHT22;10358;49.590;11.030;2023-03-21T11:00:42;13.50;85.80
20398;DHT22;10358;49.590;11.030;2023-03-21T11:03:21;13.50;84.80
20398;DHT22;10358;49.590;11.030;2023-03-21T11:05:51;13.50;85.20
20398;DHT22;10358;49.590;11.030;2023-03-21T11:08:17;13.60;86.00
20398;DHT22;10358;49.590;11.030;2023-03-21T11:10:52;13.60;84.40
20398;DHT22;10358;49.590;11.030;2023-03-21T11:13:27;13.60;86.90
20398;DHT22;10358;49.590;11.030;2023-03-21T11:16:05;13.70;85.30
20398;DHT22;10358;49.590;11.030;2023-03-21T11:18:31;13.70;84.30
20398;DHT22;10358;49.590;11.030;2023-03-21T11:21:02;13.70;85.90
20398;DHT22;10358;49.590;11.030;2023-03-21T11:23:30;13.80;85.80
20398;DHT22;10358;49.590;11.030;2023-03-21T11:25:58;13.90;84.70
20398;DHT22;10358;49.590;11.030;2023-03-21T11:28:29;14.00;84.20
20398;DHT22;10358;49.590;11.030;2023-03-21T11:31:00;13.90;85.10
20398;DHT22;10358;49.590;11.030;2023-03-21T11:33:32;13.90;84.80
20398;DHT22;10358;49.590;11.030;2023-03-21T11:38:51;14.00;85.00
20398;DHT22;10358;49.590;11.030;2023-03-21T11:41:31;14.00;85.50
20398;DHT22;10358;49.590;11.030;2023-03-21T11:43:58;14.10;84.10
20398;DHT22;10358;49.590;11.030;2023-03-21T11:46:27;14.10;84.70
20398;DHT22;10358;49.590;11.030;2023-03-21T11:48:54;14.10;85.30
20398;DHT22;10358;49.590;11.030;2023-03-21T11:51:32;14.20;85.50
20398;DHT22;10358;49.590;11.030;2023-03-21T11:54:04;14.30;85.10
20398;DHT22;10358;49.590;11.030;2023-03-21T11:56:51;14.30;84.20
20398;DHT22;10358;49.590;11.030;2023-03-21T12:02:19;14.50;85.40
20398;DHT22;10358;49.590;11.030;2023-03-21T12:04:57;14.50;83.80
20398;DHT22;10358;49.590;11.030;2023-03-21T12:10:26;14.50;83.70
20398;DHT22;10358;49.590;11.030;2023-03-21T12:15:44;14.60;84.50
20398;DHT22;10358;49.590;11.030;2023-03-21T12:21:22;14.90;85.00
20398;DHT22;10358;49.590;11.030;2023-03-21T12:24:21;15.10;85.30
20398;DHT22;10358;49.590;11.030;2023-03-21T12:29:56;15.30;83.40
20398;DHT22;10358;49.590;11.030;2023-03-21T12:32:50;15.40;83.20
20398;DHT22;10358;49.590;11.030;2023-03-21T12:38:31;15.70;81.60
20398;DHT22;10358;49.590;11.030;2023-03-21T12:41:24;15.70;80.40
20398;DHT22;10358;49.590;11.030;2023-03-21T12:43:59;15.90;80.70
20398;DHT22;10358;49.590;11.030;2023-03-21T12:46:57;16.00;81.60
20398;DHT22;10358;49.590;11.030;2023-03-21T12:49:46;16.10;79.80
20398;DHT22;10358;49.590;11.030;2023-03-21T12:52:34;16.30;78.70
20398;DHT22;10358;49.590;11.030;2023-03-21T12:55:08;16.60;79.50
20398;DHT22;10358;49.590;11.030;2023-03-21T12:57:41;16.90;77.10
20398;DHT22;10358;49.590;11.030;2023-03-21T13:00:14;17.00;77.50
20398;DHT22;10358;49.590;11.030;2023-03-21T13:02:50;17.10;75.80
20398;DHT22;10358;49.590;11.030;2023-03-21T13:05:27;17.00;75.50
20398;DHT22;10358;49.590;11.030;2023-03-21T13:08:20;17.00;72.80
20398;DHT22;10358;49.590;11.030;2023-03-21T13:10:48;17.10;73.80
20398;DHT22;10358;49.590;11.030;2023-03-21T13:13:30;17.30;74.50
20398;DHT22;10358;49.590;11.030;2023-03-21T13:16:19;17.50;73.10
20398;DHT22;10358;49.590;11.030;2023-03-21T13:21:45;17.80;73.00
20398;DHT22;10358;49.590;11.030;2023-03-21T13:27:13;17.90;71.30
20398;DHT22;10358;49.590;11.030;2023-03-21T13:29:49;18.00;71.50
20398;DHT22;10358;49.590;11.030;2023-03-21T13:32:37;18.10;71.40
20398;DHT22;10358;49.590;11.030;2023-03-21T13:35:13;18.10;71.80
20398;DHT22;10358;49.590;11.030;2023-03-21T13:37:42;18.10;69.50
20398;DHT22;10358;49.590;11.030;2023-03-21T13:42:53;18.30;70.70
20398;DHT22;10358;49.590;11.030;2023-03-21T13:45:26;18.40;69.60
20398;DHT22;10358;49.590;11.030;2023-03-21T13:55:46;18.90;68.50
20398;DHT22;10358;49.590;11.030;2023-03-21T13:58:39;19.00;67.90
20398;DHT22;10358;49.590;11.030;2023-03-21T14:01:37;18.90;66.30
20398;DHT22;10358;49.590;11.030;2023-03-21T14:04:12;19.00;64.60
20398;DHT22;10358;49.590;11.030;2023-03-21T14:07:02;19.00;65.60
20398;DHT22;10358;49.590;11.030;2023-03-21T14:09:37;18.90;65.60
20398;DHT22;10358;49.590;11.030;2023-03-21T14:12:07;18.80;65.70
20398;DHT22;10358;49.590;11.030;2023-03-21T14:14:42;18.70;65.50
20398;DHT22;10358;49.590;11.030;2023-03-21T14:17:23;18.70;64.80
20398;DHT22;10358;49.590;11.030;2023-03-21T14:19:54;18.70;65.00
20398;DHT22;10358;49.590;11.030;2023-03-21T14:22:20;18.50;64.50
20398;DHT22;10358;49.590;11.030;2023-03-21T14:24:59;18.50;65.40
20398;DHT22;10358;49.590;11.030;2023-03-21T14:27:29;18.50;65.80
20398;DHT22;10358;49.590;11.030;2023-03-21T14:29:56;18.60;66.10
20398;DHT22;10358;49.590;11.030;2023-03-21T14:32:25;18.70;64.10
20398;DHT22;10358;49.590;11.030;2023-03-21T14:34:53;18.60;65.50
20398;DHT22;10358;49.590;11.030;2023-03-21T14:37:40;18.60;65.70
20398;DHT22;10358;49.590;11.030;2023-03-21T14:40:26;18.60;65.80
20398;DHT22;10358;49.590;11.030;2023-03-21T14:42:53;18.70;65.10
20398;DHT22;10358;49.590;11.030;2023-03-21T14:45:27;18.80;65.90
20398;DHT22;10358;49.590;11.030;2023-03-21T14:48:05;18.80;65.80
20398;DHT22;10358;49.590;11.030;2023-03-21T14:50:38;18.70;65.60
20398;DHT22;10358;49.590;11.030;2023-03-21T14:53:07;18.80;66.30
20398;DHT22;10358;49.590;11.030;2023-03-21T14:55:44;18.80;65.50
20398;DHT22;10358;49.590;11.030;2023-03-21T14:58:12;18.70;64.60
20398;DHT22;10358;49.590;11.030;2023-03-21T15:00:40;18.60;63.90
20398;DHT22;10358;49.590;11.030;2023-03-21T15:03:06;18.50;64.90
20398;DHT22;10358;49.590;11.030;2023-03-21T15:05:35;18.10;64.70
20398;DHT22;10358;49.590;11.030;2023-03-21T15:08:06;18.20;65.90
20398;DHT22;10358;49.590;11.030;2023-03-21T15:10:32;18.40;66.00
20398;DHT22;10358;49.590;11.030;2023-03-21T15:13:19;18.50;65.50
20398;DHT22;10358;49.590;11.030;2023-03-21T15:15:47;18.50;65.10
20398;DHT22;10358;49.590;11.030;2023-03-21T15:18:25;18.60;65.40
20398;DHT22;10358;49.590;11.030;2023-03-21T15:20:52;18.50;66.50
20398;DHT22;10358;49.590;11.030;2023-03-21T15:23:39;18.30;65.20
20398;DHT22;10358;49.590;11.030;2023-03-21T15:26:05;17.80;64.10
20398;DHT22;10358;49.590;11.030;2023-03-21T15:28:35;17.40;66.00
20398;DHT22;10358;49.590;11.030;2023-03-21T15:31:01;17.40;67.10
20398;DHT22;10358;49.590;11.030;2023-03-21T15:33:26;17.40;66.30
20398;DHT22;10358;49.590;11.030;2023-03-21T15:35:57;17.20;66.90
20398;DHT22;10358;49.590;11.030;2023-03-21T15:38:28;17.20;68.10
20398;DHT22;10358;49.590;11.030;2023-03-21T15:43:40;16.60;68.30
20398;DHT22;10358;49.590;11.030;2023-03-21T15:46:16;16.50;69.50
20398;DHT22;10358;49.590;11.030;2023-03-21T15:48:42;16.50;69.80
20398;DHT22;10358;49.590;11.030;2023-03-21T15:51:21;16.40;70.50
20398;DHT22;10358;49.590;11.030;2023-03-21T15:53:50;16.40;70.80
20398;DHT22;10358;49.590;11.030;2023-03-21T15:56:21;16.30;70.90
20398;DHT22;10358;49.590;11.030;2023-03-21T15:58:50;16.20;71.50
20398;DHT22;10358;49.590;11.030;2023-03-21T16:01:18;16.10;71.80
20398;DHT22;10358;49.590;11.030;2023-03-21T16:03:47;15.90;72.30
20398;DHT22;10358;49.590;11.030;2023-03-21T16:06:19;15.80;73.20
20398;DHT22;10358;49.590;11.030;2023-03-21T16:11:37;15.60;74.90
20398;DHT22;10358;49.590;11.030;2023-03-21T16:14:03;15.50;75.50
20398;DHT22;10358;49.590;11.030;2023-03-21T16:16:29;15.50;76.20
20398;DHT22;10358;49.590;11.030;2023-03-21T16:18:57;15.50;76.70
20398;DHT22;10358;49.590;11.030;2023-03-21T16:21:25;15.40;76.90
20398;DHT22;10358;49.590;11.030;2023-03-21T16:23:52;15.40;77.30
20398;DHT22;10358;49.590;11.030;2023-03-21T16:26:20;15.30;78.00
20398;DHT22;10358;49.590;11.030;2023-03-21T16:28:47;15.20;78.00
20398;DHT22;10358;49.590;11.030;2023-03-21T16:31:15;15.00;78.60
20398;DHT22;10358;49.590;11.030;2023-03-21T16:33:41;15.00;79.00
20398;DHT22;10358;49.590;11.030;2023-03-21T16:36:15;15.00;79.20
20398;DHT22;10358;49.590;11.030;2023-03-21T16:38:43;15.00;79.20
20398;DHT22;10358;49.590;11.030;2023-03-21T16:41:10;14.90;79.60
20398;DHT22;10358;49.590;11.030;2023-03-21T16:43:36;14.90;79.90
20398;DHT22;10358;49.590;11.030;2023-03-21T16:46:10;14.80;80.30
20398;DHT22;10358;49.590;11.030;2023-03-21T16:48:36;14.70;80.90
20398;DHT22;10358;49.590;11.030;2023-03-21T16:51:02;14.60;81.50
20398;DHT22;10358;49.590;11.030;2023-03-21T16:53:27;14.50;82.20
20398;DHT22;10358;49.590;11.030;2023-03-21T16:55:53;14.50;83.00
20398;DHT22;10358;49.590;11.030;2023-03-21T16:58:18;14.40;84.30
20398;DHT22;10358;49.590;11.030;2023-03-21T17:00:44;14.40;84.30
20398;DHT22;10358;49.590;11.030;2023-03-21T17:03:14;14.40;85.10
20398;DHT22;10358;49.590;11.030;2023-03-21T17:05:43;14.40;86.50